Time;durP1;ratioP1;P1;durP2;ratioP2;P2;SDS_P1;SDS_P2;PMS_P1;PMS_P2;Temp;Humidity;BMP_temperature;BMP_pressure;BME280_temperature;BME280_humidity;BME280_pressure;Samples;Min_cycle;Max_cycle;Signal;HPM_P1;HPM_P2
2021/04/12 00:01:23;;;;;;;10.67;4.70;;;;;;;;;;4995306;28;20206;-68
2021/04/12 00:03:53;;;;;;;6.80;3.13;;;;;;;;;;4997816;28;20416;-68
2021/04/12 00:06:35;;;;;;;6.10;2.90;;;;;;;;;;4996730;28;20212;-68
2021/04/12 00:09:27;;;;;;;7.67;4.10;;;;;;;;;;4979385;28;20213;-68
2021/04/12 00:12:09;;;;;;;6.93;3.97;;;;;;;;;;4966476;28;20297;-68
2021/04/12 00:14:58;;;;;;;10.83;4.93;;;;;;;;;;4995301;28;20186;-68
2021/04/12 00:17:33;;;;;;;10.57;4.67;;;;;;;;;;4992377;28;20191;-68
2021/04/12 00:20:18;;;;;;;10.87;4.83;;;;;;;;;;4987713;28;20190;-68
2021/04/12 00:23:02;;;;;;;11.07;4.70;;;;;;;;;;4993914;28;20206;-68
2021/04/12 00:25:37;;;;;;;15.60;4.43;;;;;;;;;;4985564;28;20210;-68
2021/04/12 00:28:09;;;;;;;7.30;3.90;;;;;;;;;;4992862;28;20198;-68
2021/04/12 00:30:40;;;;;;;8.57;4.57;;;;;;;;;;4982118;28;20274;-68
2021/04/12 00:33:20;;;;;;;7.57;3.50;;;;;;;;;;4995765;28;20318;-68
2021/04/12 00:36:03;;;;;;;7.33;3.80;;;;;;;;;;4982137;28;20191;-68
2021/04/12 00:38:43;;;;;;;11.60;3.47;;;;;;;;;;4999002;28;20231;-68
2021/04/12 00:41:32;;;;;;;8.97;3.43;;;;;;;;;;4983500;28;20282;-68
2021/04/12 00:44:10;;;;;;;6.37;3.60;;;;;;;;;;4993111;28;20601;-68
2021/04/12 00:47:08;;;;;;;7.10;3.00;;;;;;;;;;4989560;28;20353;-68
2021/04/12 00:49:52;;;;;;;7.63;2.90;;;;;;;;;;4994683;28;20566;-68
2021/04/12 00:52:42;;;;;;;9.63;2.90;;;;;;;;;;4985547;28;20285;-68
2021/04/12 00:55:22;;;;;;;9.10;3.17;;;;;;;;;;4997884;28;20198;-68
2021/04/12 00:58:09;;;;;;;9.33;3.00;;;;;;;;;;4991989;28;20187;-68
2021/04/12 01:00:43;;;;;;;6.27;3.17;;;;;;;;;;4989016;28;20190;-68
2021/04/12 01:03:45;;;;;;;7.27;3.90;;;;;;;;;;4991899;28;20221;-68
2021/04/12 01:06:31;;;;;;;6.93;3.13;;;;;;;;;;4987731;28;20230;-68
2021/04/12 01:09:29;;;;;;;9.07;3.50;;;;;;;;;;4996304;28;20194;-69
2021/04/12 01:12:31;;;;;;;5.67;2.83;;;;;;;;;;4986706;28;20674;-66
2021/04/12 01:15:26;;;;;;;6.97;3.00;;;;;;;;;;4998649;28;20639;-69
2021/04/12 01:18:03;;;;;;;6.63;2.93;;;;;;;;;;4990640;28;20194;-69
2021/04/12 01:20:58;;;;;;;9.00;2.70;;;;;;;;;;4992407;28;20594;-68
2021/04/12 01:23:51;;;;;;;7.90;3.10;;;;;;;;;;4988984;28;20718;-68
2021/04/12 01:26:41;;;;;;;8.97;3.00;;;;;;;;;;4992241;28;20716;-69
2021/04/12 01:29:28;;;;;;;6.50;3.27;;;;;;;;;;4988721;28;20194;-67
2021/04/12 01:32:11;;;;;;;5.77;3.03;;;;;;;;;;4992846;28;20580;-67
2021/04/12 01:35:04;;;;;;;5.53;2.90;;;;;;;;;;4995536;28;20538;-67
2021/04/12 01:37:41;;;;;;;8.50;3.13;;;;;;;;;;4990247;28;20521;-70
2021/04/12 01:40:13;;;;;;;9.43;2.97;;;;;;;;;;4991356;28;20233;-68
2021/04/12 01:42:53;;;;;;;12.20;3.03;;;;;;;;;;4994688;28;20202;-68
2021/04/12 01:45:29;;;;;;;6.70;3.50;;;;;;;;;;4992828;28;20924;-68
2021/04/12 01:48:19;;;;;;;13.80;3.73;;;;;;;;;;4992369;28;20678;-67
2021/04/12 01:51:06;;;;;;;9.10;3.10;;;;;;;;;;4990269;28;20215;-67
2021/04/12 01:54:03;;;;;;;6.53;3.27;;;;;;;;;;4993849;28;20190;-67
2021/04/12 01:56:44;;;;;;;7.67;3.23;;;;;;;;;;4993681;28;20249;-68
2021/04/12 01:59:54;;;;;;;7.50;3.40;;;;;;;;;;4986996;28;20670;-68
2021/04/12 02:02:31;;;;;;;8.67;3.00;;;;;;;;;;4980273;28;20438;-68
2021/04/12 02:05:02;;;;;;;10.77;3.20;;;;;;;;;;4975553;28;20278;-68
2021/04/12 02:07:27;;;;;;;13.83;3.87;;;;;;;;;;4984607;28;20199;-68
2021/04/12 02:10:17;;;;;;;9.03;3.63;;;;;;;;;;4986157;28;20564;-68
2021/04/12 02:13:15;;;;;;;8.50;3.40;;;;;;;;;;4998107;28;20193;-68
2021/04/12 02:16:02;;;;;;;10.47;4.20;;;;;;;;;;4977710;28;20298;-67
2021/04/12 02:18:56;;;;;;;13.03;3.30;;;;;;;;;;4997589;28;20184;-68
2021/04/12 02:21:42;;;;;;;11.27;3.70;;;;;;;;;;4987223;28;20215;-68
2021/04/12 02:25:01;;;;;;;6.07;3.53;;;;;;;;;;4994047;28;20615;-68
2021/04/12 02:28:02;;;;;;;8.70;3.23;;;;;;;;;;4995158;28;20195;-68
2021/04/12 02:30:36;;;;;;;6.37;3.27;;;;;;;;;;4959803;28;20720;-68
2021/04/12 02:33:02;;;;;;;7.33;3.27;;;;;;;;;;5001152;28;20197;-68
2021/04/12 02:35:36;;;;;;;9.43;3.30;;;;;;;;;;4991195;28;20517;-68
2021/04/12 02:38:35;;;;;;;10.33;3.73;;;;;;;;;;4999357;28;20214;-68
2021/04/12 02:41:24;;;;;;;7.70;3.63;;;;;;;;;;4988303;28;20228;-68
2021/04/12 02:44:09;;;;;;;6.67;3.30;;;;;;;;;;4995962;28;20245;-68
2021/04/12 02:46:55;;;;;;;8.70;3.67;;;;;;;;;;4988847;28;20227;-68
2021/04/12 02:49:33;;;;;;;9.00;3.63;;;;;;;;;;5000014;28;20194;-68
2021/04/12 02:52:40;;;;;;;7.23;3.57;;;;;;;;;;4987771;28;20193;-68
2021/04/12 02:55:19;;;;;;;7.93;3.80;;;;;;;;;;4972974;28;20278;-68
2021/04/12 02:58:22;;;;;;;10.73;3.67;;;;;;;;;;4987520;28;20347;-68
2021/04/12 03:01:24;;;;;;;6.93;3.43;;;;;;;;;;4996285;28;20217;-69
2021/04/12 03:04:04;;;;;;;8.27;3.47;;;;;;;;;;4992016;28;20214;-68
2021/04/12 03:06:43;;;;;;;8.23;3.90;;;;;;;;;;4995314;28;20210;-68
2021/04/12 03:09:27;;;;;;;6.63;3.30;;;;;;;;;;4990267;28;20627;-69
2021/04/12 03:12:01;;;;;;;7.73;3.53;;;;;;;;;;4990902;28;20722;-67
2021/04/12 03:14:41;;;;;;;5.67;3.47;;;;;;;;;;4987024;28;20179;-67
2021/04/12 03:17:29;;;;;;;10.17;3.97;;;;;;;;;;4996225;28;20361;-68
2021/04/12 03:20:37;;;;;;;12.00;3.73;;;;;;;;;;4993890;28;20190;-68
2021/04/12 03:23:39;;;;;;;8.83;3.80;;;;;;;;;;4987843;28;20191;-68
2021/04/12 03:26:27;;;;;;;8.33;3.50;;;;;;;;;;4990788;28;20207;-68
2021/04/12 03:29:06;;;;;;;14.33;4.20;;;;;;;;;;4990289;28;20259;-68
2021/04/12 03:32:02;;;;;;;7.63;3.50;;;;;;;;;;4994700;28;20186;-68
2021/04/12 03:34:51;;;;;;;8.90;4.13;;;;;;;;;;4990186;28;20198;-68
2021/04/12 03:37:35;;;;;;;11.27;3.33;;;;;;;;;;4989624;28;20188;-68
2021/04/12 03:40:25;;;;;;;10.43;3.70;;;;;;;;;;4991117;28;20198;-68
2021/04/12 03:43:33;;;;;;;10.40;4.07;;;;;;;;;;4994701;28;20242;-68
2021/04/12 03:46:07;;;;;;;9.90;3.87;;;;;;;;;;4989440;28;20207;-68
2021/04/12 03:48:41;;;;;;;15.07;3.80;;;;;;;;;;4998404;28;20717;-68
2021/04/12 03:51:27;;;;;;;12.00;3.73;;;;;;;;;;4988440;28;20188;-68
2021/04/12 03:54:20;;;;;;;11.03;4.40;;;;;;;;;;4997388;28;20226;-68
2021/04/12 03:57:24;;;;;;;10.73;4.40;;;;;;;;;;4996804;28;20183;-68
2021/04/12 04:00:13;;;;;;;9.73;4.10;;;;;;;;;;4987497;28;20868;-68
2021/04/12 04:03:11;;;;;;;10.43;4.07;;;;;;;;;;4996443;28;20214;-68
2021/04/12 04:06:02;;;;;;;10.93;4.27;;;;;;;;;;4984758;28;20219;-68
2021/04/12 04:08:46;;;;;;;7.93;4.00;;;;;;;;;;4998529;28;20207;-67
2021/04/12 04:11:55;;;;;;;8.53;3.40;;;;;;;;;;4985701;28;20542;-67
2021/04/12 04:14:43;;;;;;;10.90;4.17;;;;;;;;;;4990100;28;20206;-68
2021/04/12 04:17:26;;;;;;;13.00;4.10;;;;;;;;;;4983654;28;20183;-68
2021/04/12 04:20:08;;;;;;;10.37;4.03;;;;;;;;;;4993508;28;20544;-68
2021/04/12 04:22:44;;;;;;;11.67;4.03;;;;;;;;;;4982232;28;20198;-68
2021/04/12 04:25:19;;;;;;;10.47;4.00;;;;;;;;;;4993791;28;20217;-68
2021/04/12 04:28:12;;;;;;;7.03;3.87;;;;;;;;;;4987416;28;20199;-68
2021/04/12 04:31:04;;;;;;;8.73;3.93;;;;;;;;;;4995529;28;20261;-68
2021/04/12 04:34:08;;;;;;;8.23;3.93;;;;;;;;;;4991751;28;20183;-68
2021/04/12 04:37:02;;;;;;;10.70;4.03;;;;;;;;;;4964118;28;20250;-68
2021/04/12 04:39:27;;;;;;;12.10;4.10;;;;;;;;;;4989570;28;20274;-68
2021/04/12 04:42:11;;;;;;;12.20;4.60;;;;;;;;;;4990431;28;20749;-68
2021/04/12 04:44:55;;;;;;;12.37;4.77;;;;;;;;;;5007545;28;20195;-68
2021/04/12 04:47:23;;;;;;;13.37;5.13;;;;;;;;;;4988702;28;20198;-68
2021/04/12 04:50:19;;;;;;;9.87;4.47;;;;;;;;;;4991277;28;20190;-68
2021/04/12 04:53:04;;;;;;;12.93;4.77;;;;;;;;;;4984353;28;20608;-68
2021/04/12 04:55:38;;;;;;;13.53;4.53;;;;;;;;;;4992297;28;20318;-69
2021/04/12 04:58:14;;;;;;;11.30;5.27;;;;;;;;;;4986073;28;20285;-69
2021/04/12 05:00:53;;;;;;;11.23;4.90;;;;;;;;;;4995779;28;20249;-69
2021/04/12 05:03:25;;;;;;;10.67;5.47;;;;;;;;;;4988085;28;20210;-67
2021/04/12 05:06:21;;;;;;;12.77;5.67;;;;;;;;;;4993997;28;20214;-68
2021/04/12 05:08:59;;;;;;;12.77;6.20;;;;;;;;;;4982007;28;20663;-68
2021/04/12 05:11:32;;;;;;;13.80;6.00;;;;;;;;;;4988374;28;20266;-68
2021/04/12 05:14:22;;;;;;;12.90;6.40;;;;;;;;;;4983228;28;20182;-68
2021/04/12 05:17:15;;;;;;;12.63;6.37;;;;;;;;;;4994379;28;20209;-68
2021/04/12 05:20:22;;;;;;;12.90;6.50;;;;;;;;;;4982790;28;20191;-68
2021/04/12 05:23:15;;;;;;;15.97;6.83;;;;;;;;;;4984508;28;20207;-68
2021/04/12 05:26:15;;;;;;;13.77;6.10;;;;;;;;;;4985000;28;20238;-69
2021/04/12 05:29:10;;;;;;;14.90;6.63;;;;;;;;;;4987490;28;20228;-68
2021/04/12 05:31:48;;;;;;;13.23;6.23;;;;;;;;;;4990411;28;20655;-68
2021/04/12 05:34:25;;;;;;;10.63;6.60;;;;;;;;;;4988515;28;20597;-67
2021/04/12 05:37:14;;;;;;;11.80;6.37;;;;;;;;;;4997193;28;20186;-67
2021/04/12 05:40:08;;;;;;;13.97;6.07;;;;;;;;;;4981242;28;20182;-68
2021/04/12 05:43:12;;;;;;;13.33;5.97;;;;;;;;;;4998659;28;20226;-69
2021/04/12 05:46:15;;;;;;;11.37;6.27;;;;;;;;;;4984335;28;20679;-68
2021/04/12 05:49:05;;;;;;;11.57;5.60;;;;;;;;;;4994777;28;20269;-68
2021/04/12 05:51:45;;;;;;;12.53;5.83;;;;;;;;;;4987516;28;20187;-68
2021/04/12 05:54:24;;;;;;;11.83;5.47;;;;;;;;;;4995328;28;20292;-68
2021/04/12 05:57:29;;;;;;;10.73;5.93;;;;;;;;;;4983612;28;20184;-68
2021/04/12 06:00:23;;;;;;;10.57;6.13;;;;;;;;;;4992073;28;20191;-68
2021/04/12 06:03:08;;;;;;;13.77;5.43;;;;;;;;;;4981045;28;20218;-68
2021/04/12 06:05:42;;;;;;;10.10;7.20;;;;;;;;;;4992935;28;20577;-68
2021/04/12 06:08:35;;;;;;;11.47;6.80;;;;;;;;;;4988746;28;20219;-67
2021/04/12 06:11:19;;;;;;;13.83;7.20;;;;;;;;;;4996104;28;20250;-68
2021/04/12 06:14:22;;;;;;;13.03;6.40;;;;;;;;;;4988879;28;20246;-68
2021/04/12 06:16:53;;;;;;;12.27;5.80;;;;;;;;;;4986347;28;20198;-68
2021/04/12 06:19:42;;;;;;;11.27;5.80;;;;;;;;;;4990925;28;20278;-68
2021/04/12 06:22:19;;;;;;;11.73;5.90;;;;;;;;;;4984277;28;20241;-68
2021/04/12 06:25:04;;;;;;;12.97;5.73;;;;;;;;;;4991869;28;20718;-69
2021/04/12 06:27:45;;;;;;;9.27;5.43;;;;;;;;;;4986198;28;20195;-68
2021/04/12 06:30:22;;;;;;;13.13;5.67;;;;;;;;;;4993601;28;20575;-67
2021/04/12 06:33:06;;;;;;;10.40;5.13;;;;;;;;;;4984536;28;20195;-67
2021/04/12 06:35:44;;;;;;;8.00;4.93;;;;;;;;;;4991944;28;20188;-68
2021/04/12 06:38:32;;;;;;;8.70;4.70;;;;;;;;;;4981396;28;20278;-68
2021/04/12 06:41:42;;;;;;;10.70;4.47;;;;;;;;;;4999461;28;20231;-68
2021/04/12 06:44:48;;;;;;;9.67;4.27;;;;;;;;;;4987348;28;20196;-67
2021/04/12 06:47:38;;;;;;;5.90;3.83;;;;;;;;;;4998785;28;20278;-68
2021/04/12 06:50:18;;;;;;;6.10;3.97;;;;;;;;;;4987580;28;21162;-68
2021/04/12 06:53:11;;;;;;;5.97;3.60;;;;;;;;;;4995914;28;20873;-68
2021/04/12 06:56:18;;;;;;;7.00;3.23;;;;;;;;;;4982419;28;20194;-68
2021/04/12 06:59:11;;;;;;;8.20;3.50;;;;;;;;;;4987893;28;20641;-68
2021/04/12 07:01:59;;;;;;;8.07;3.20;;;;;;;;;;4995859;28;20643;-69
2021/04/12 07:04:33;;;;;;;4.60;2.80;;;;;;;;;;4988935;28;20687;-68
2021/04/12 07:07:23;;;;;;;8.00;3.30;;;;;;;;;;4998052;28;20290;-69
2021/04/12 07:10:11;;;;;;;8.67;2.67;;;;;;;;;;4992368;28;20614;-68
2021/04/12 07:12:54;;;;;;;7.43;2.53;;;;;;;;;;4990942;28;20187;-68
2021/04/12 07:15:37;;;;;;;6.67;2.73;;;;;;;;;;4984939;28;20191;-68
2021/04/12 07:18:36;;;;;;;8.13;2.50;;;;;;;;;;5000626;28;20763;-68
2021/04/12 07:21:24;;;;;;;5.00;2.23;;;;;;;;;;4984025;28;20587;-68
2021/04/12 07:24:31;;;;;;;6.07;2.50;;;;;;;;;;4968489;28;20203;-68
2021/04/12 07:27:33;;;;;;;5.93;2.30;;;;;;;;;;4990329;28;20286;-69
2021/04/12 07:30:24;;;;;;;5.13;1.90;;;;;;;;;;4990205;28;20183;-68
2021/04/12 07:33:02;;;;;;;6.07;2.00;;;;;;;;;;4995303;28;20192;-69
2021/04/12 07:36:00;;;;;;;6.00;2.00;;;;;;;;;;4986652;28;20487;-69
2021/04/12 07:39:03;;;;;;;11.30;2.50;;;;;;;;;;4997541;28;20638;-69
2021/04/12 07:41:53;;;;;;;4.40;2.10;;;;;;;;;;4989017;28;20222;-69
2021/04/12 07:44:55;;;;;;;6.80;2.57;;;;;;;;;;4992606;28;20188;-68
2021/04/12 07:47:55;;;;;;;4.10;1.73;;;;;;;;;;4994150;28;20197;-68
2021/04/12 07:50:42;;;;;;;6.10;2.00;;;;;;;;;;4993952;28;20195;-69
2021/04/12 07:53:32;;;;;;;7.97;2.20;;;;;;;;;;4990787;28;20191;-68
2021/04/12 07:56:29;;;;;;;3.47;1.97;;;;;;;;;;4993645;28;20613;-69
2021/04/12 07:59:33;;;;;;;5.70;1.67;;;;;;;;;;4986175;28;20199;-69
2021/04/12 08:02:26;;;;;;;7.17;1.80;;;;;;;;;;4957256;28;20202;-69
2021/04/12 08:05:28;;;;;;;4.23;1.57;;;;;;;;;;4995656;28;20294;-69
2021/04/12 08:08:33;;;;;;;5.43;1.70;;;;;;;;;;4985078;28;20198;-69
2021/04/12 08:11:34;;;;;;;4.20;1.33;;;;;;;;;;4967253;28;20183;-69
2021/04/12 08:14:21;;;;;;;6.40;1.83;;;;;;;;;;4983612;28;20642;-69
2021/04/12 08:17:32;;;;;;;5.53;1.50;;;;;;;;;;4992029;28;20191;-73
2021/04/12 08:20:07;;;;;;;4.60;1.20;;;;;;;;;;4990043;28;20538;-68
2021/04/12 08:23:00;;;;;;;4.80;1.10;;;;;;;;;;4996444;28;20190;-68
2021/04/12 08:26:13;;;;;;;4.20;1.17;;;;;;;;;;4996335;28;20206;-69
2021/04/12 08:29:03;;;;;;;6.87;1.27;;;;;;;;;;4986067;28;20183;-68
2021/04/12 08:32:14;;;;;;;7.67;1.10;;;;;;;;;;4990032;28;20206;-68
2021/04/12 08:35:13;;;;;;;5.03;0.83;;;;;;;;;;4984627;28;20431;-70
2021/04/12 08:38:32;;;;;;;2.17;0.73;;;;;;;;;;4991795;28;20187;-69
2021/04/12 08:41:31;;;;;;;3.93;0.60;;;;;;;;;;4998052;28;20237;-69
2021/04/12 08:44:11;;;;;;;4.93;1.00;;;;;;;;;;4983852;28;20253;-69
2021/04/12 08:47:04;;;;;;;6.87;1.00;;;;;;;;;;4992372;28;20826;-69
2021/04/12 08:49:54;;;;;;;3.63;0.70;;;;;;;;;;4980562;28;20187;-69
2021/04/12 08:52:23;;;;;;;4.50;0.97;;;;;;;;;;4990700;28;21869;-69
2021/04/12 08:55:09;;;;;;;3.40;0.67;;;;;;;;;;4984930;28;20203;-69
2021/04/12 08:58:07;;;;;;;5.40;0.83;;;;;;;;;;4988734;28;20195;-69
2021/04/12 09:00:58;;;;;;;2.63;0.63;;;;;;;;;;4976532;28;20211;-69
2021/04/12 09:04:00;;;;;;;4.93;0.97;;;;;;;;;;4992087;28;20222;-69
2021/04/12 09:07:03;;;;;;;4.87;1.00;;;;;;;;;;4986536;28;20290;-69
2021/04/12 09:09:59;;;;;;;3.03;0.77;;;;;;;;;;4993087;28;20191;-69
2021/04/12 09:12:48;;;;;;;3.80;0.82;;;;;;;;;;4981273;28;20227;-69
2021/04/12 09:15:51;;;;;;;5.82;0.80;;;;;;;;;;4989469;28;20184;-69
2021/04/12 09:18:32;;;;;;;5.47;0.93;;;;;;;;;;4989584;28;20221;-69
2021/04/12 09:21:22;;;;;;;3.50;0.88;;;;;;;;;;4993985;28;22803;-69
2021/04/12 09:24:00;;;;;;;3.00;0.90;;;;;;;;;;4993835;28;20198;-69
2021/04/12 09:26:57;;;;;;;4.00;0.80;;;;;;;;;;4992144;28;20210;-69
2021/04/12 09:29:51;;;;;;;5.83;1.10;;;;;;;;;;4989702;28;20187;-69
2021/04/12 09:32:44;;;;;;;4.32;0.85;;;;;;;;;;4963663;28;20310;-69
2021/04/12 09:35:46;;;;;;;4.03;0.93;;;;;;;;;;4993164;28;20616;-69
2021/04/12 09:38:30;;;;;;;2.63;0.80;;;;;;;;;;4983352;28;20205;-69
2021/04/12 09:41:40;;;;;;;6.63;0.60;;;;;;;;;;4999568;28;20245;-69
2021/04/12 09:44:43;;;;;;;3.42;0.70;;;;;;;;;;4934268;29;20736;-68
2021/04/12 09:47:28;;;;;;;3.55;0.60;;;;;;;;;;4981248;28;20265;-68
2021/04/12 09:50:02;;;;;;;4.40;0.60;;;;;;;;;;4990350;28;20194;-67
2021/04/12 09:52:54;;;;;;;3.00;0.60;;;;;;;;;;4978745;28;20237;-67
2021/04/12 09:55:49;;;;;;;5.45;0.80;;;;;;;;;;4995852;28;20270;-70
2021/04/12 09:58:51;;;;;;;4.03;0.60;;;;;;;;;;4984087;28;20608;-70
2021/04/12 10:01:34;;;;;;;2.00;0.40;;;;;;;;;;4986644;28;20190;-70
2021/04/12 10:04:23;;;;;;;5.13;1.03;;;;;;;;;;4982996;28;20215;-69
2021/04/12 10:07:13;;;;;;;3.70;0.47;;;;;;;;;;4991578;28;20211;-69
2021/04/12 10:09:44;;;;;;;2.97;0.60;;;;;;;;;;4980250;28;20191;-69
2021/04/12 10:12:40;;;;;;;3.90;0.73;;;;;;;;;;4990777;28;20345;-71
2021/04/12 10:15:21;;;;;;;1.60;0.60;;;;;;;;;;4989893;28;20558;-72
2021/04/12 10:18:12;;;;;;;3.23;0.70;;;;;;;;;;4997173;28;20562;-72
2021/04/12 10:20:56;;;;;;;5.47;1.03;;;;;;;;;;4985812;28;20199;-73
2021/04/12 10:23:27;;;;;;;6.20;1.07;;;;;;;;;;4995033;28;20218;-70
2021/04/12 10:26:07;;;;;;;5.83;0.97;;;;;;;;;;4984150;28;20620;-70
2021/04/12 10:29:02;;;;;;;4.27;1.13;;;;;;;;;;4995142;28;20592;-69
2021/04/12 10:31:34;;;;;;;2.87;1.20;;;;;;;;;;4988064;28;20302;-73
2021/04/12 10:34:08;;;;;;;2.67;0.97;;;;;;;;;;4997544;28;20277;-71
2021/04/12 10:36:52;;;;;;;4.30;0.93;;;;;;;;;;4986014;28;20229;-74
2021/04/12 10:39:45;;;;;;;3.33;0.90;;;;;;;;;;4992307;28;20265;-72
2021/04/12 10:42:48;;;;;;;3.73;1.00;;;;;;;;;;4998689;28;20273;-70
2021/04/12 10:45:28;;;;;;;4.93;0.83;;;;;;;;;;4964483;28;20372;-69
2021/04/12 10:48:17;;;;;;;3.90;0.90;;;;;;;;;;4999685;28;21903;-69
2021/04/12 10:51:00;;;;;;;6.30;1.20;;;;;;;;;;4990879;28;20273;-69
2021/04/12 10:53:41;;;;;;;2.33;0.97;;;;;;;;;;4994880;28;20207;-68
2021/04/12 10:56:13;;;;;;;2.27;0.97;;;;;;;;;;4991921;28;20629;-69
2021/04/12 10:59:12;;;;;;;4.53;0.90;;;;;;;;;;4998926;28;20627;-69
2021/04/12 11:01:56;;;;;;;5.50;1.03;;;;;;;;;;4984486;28;20202;-69
2021/04/12 11:04:34;;;;;;;6.10;1.00;;;;;;;;;;5000078;28;20207;-69
2021/04/12 11:07:13;;;;;;;3.47;1.13;;;;;;;;;;4987439;28;20589;-68
2021/04/12 11:09:47;;;;;;;3.23;1.17;;;;;;;;;;4994897;28;20178;-68
2021/04/12 11:12:31;;;;;;;5.17;1.10;;;;;;;;;;4983904;28;20202;-68
2021/04/12 11:15:25;;;;;;;3.80;1.10;;;;;;;;;;5001336;28;20714;-68
2021/04/12 11:17:56;;;;;;;4.97;1.20;;;;;;;;;;4983123;28;20267;-70
2021/04/12 11:20:44;;;;;;;1.60;0.87;;;;;;;;;;4993711;28;20542;-68
2021/04/12 11:23:22;;;;;;;4.37;1.10;;;;;;;;;;4983319;28;20203;-68
2021/04/12 11:25:53;;;;;;;2.97;0.97;;;;;;;;;;4999385;28;20214;-68
2021/04/12 11:28:38;;;;;;;4.43;1.13;;;;;;;;;;4988947;28;20186;-68
2021/04/12 11:31:16;;;;;;;3.53;0.90;;;;;;;;;;4995993;28;20211;-68
2021/04/12 11:34:10;;;;;;;2.53;0.93;;;;;;;;;;4985318;28;20305;-68
2021/04/12 11:37:18;;;;;;;2.80;0.80;;;;;;;;;;4995450;28;20188;-68
2021/04/12 11:39:57;;;;;;;5.10;1.08;;;;;;;;;;4956674;28;20297;-69
2021/04/12 11:42:29;;;;;;;2.25;0.90;;;;;;;;;;4990479;28;20234;-69
2021/04/12 11:45:04;;;;;;;3.03;0.95;;;;;;;;;;4991842;28;20200;-68
2021/04/12 11:48:16;;;;;;;2.33;0.90;;;;;;;;;;4990392;28;20553;-68
2021/04/12 11:50:52;;;;;;;2.28;0.77;;;;;;;;;;4997209;28;20199;-68
2021/04/12 11:53:28;;;;;;;3.30;0.98;;;;;;;;;;4993564;28;20584;-68
2021/04/12 11:56:09;;;;;;;4.65;1.20;;;;;;;;;;4991725;28;20179;-69
2021/04/12 11:58:40;;;;;;;3.70;1.23;;;;;;;;;;4993824;28;20278;-69
2021/04/12 12:01:36;;;;;;;3.67;1.30;;;;;;;;;;4990686;28;20190;-69
2021/04/12 12:04:29;;;;;;;2.95;1.40;;;;;;;;;;4987035;28;20674;-69
2021/04/12 12:07:15;;;;;;;4.00;1.50;;;;;;;;;;4990409;28;20670;-69
2021/04/12 12:09:51;;;;;;;6.07;1.60;;;;;;;;;;4989052;28;20278;-69
2021/04/12 12:12:37;;;;;;;3.97;1.50;;;;;;;;;;4988863;28;20643;-69
2021/04/12 12:15:11;;;;;;;2.78;1.00;;;;;;;;;;4988706;28;20222;-68
2021/04/12 12:17:43;;;;;;;3.42;0.70;;;;;;;;;;4994543;28;20179;-69
2021/04/12 12:20:16;;;;;;;1.92;0.80;;;;;;;;;;4983096;28;20210;-69
2021/04/12 12:22:50;;;;;;;2.88;0.88;;;;;;;;;;4992303;28;20198;-69
2021/04/12 12:25:44;;;;;;;3.70;0.90;;;;;;;;;;4986644;28;20222;-69
2021/04/12 12:28:12;;;;;;;4.83;1.30;;;;;;;;;;4986551;28;20195;-69
2021/04/12 12:31:09;;;;;;;4.47;1.40;;;;;;;;;;4986901;28;20278;-69
2021/04/12 12:33:51;;;;;;;4.70;1.30;;;;;;;;;;4989300;28;20223;-69
2021/04/12 12:36:19;;;;;;;2.40;0.90;;;;;;;;;;4983207;28;20288;-68
2021/04/12 12:39:00;;;;;;;5.13;1.30;;;;;;;;;;4989397;28;20219;-69
2021/04/12 12:41:29;;;;;;;3.70;1.13;;;;;;;;;;4984834;28;20314;-68
2021/04/12 12:44:05;;;;;;;4.63;1.00;;;;;;;;;;4994353;28;20213;-69
2021/04/12 12:46:36;;;;;;;2.47;1.20;;;;;;;;;;4985600;28;20210;-69
2021/04/12 12:49:08;;;;;;;3.83;1.20;;;;;;;;;;4991162;28;20213;-70
2021/04/12 12:52:12;;;;;;;6.10;1.10;;;;;;;;;;4986193;28;20751;-69
2021/04/12 12:54:47;;;;;;;4.87;1.30;;;;;;;;;;4963237;28;24093;-70
2021/04/12 12:57:27;;;;;;;2.47;0.90;;;;;;;;;;4981283;28;20183;-69
2021/04/12 12:59:59;;;;;;;2.17;1.00;;;;;;;;;;4989240;28;20199;-70
2021/04/12 13:02:24;;;;;;;4.37;0.90;;;;;;;;;;4987845;28;20195;-69
2021/04/12 13:05:04;;;;;;;2.97;1.00;;;;;;;;;;4996482;28;20188;-69
2021/04/12 13:07:31;;;;;;;6.00;1.20;;;;;;;;;;4982157;28;20669;-68
2021/04/12 13:10:05;;;;;;;3.60;1.13;;;;;;;;;;4991852;28;20199;-68
2021/04/12 13:12:41;;;;;;;3.53;1.20;;;;;;;;;;4982935;28;20191;-68
2021/04/12 13:15:17;;;;;;;3.33;1.13;;;;;;;;;;4991126;28;20294;-69
2021/04/12 13:17:43;;;;;;;3.45;1.10;;;;;;;;;;4985965;28;20174;-68
2021/04/12 13:20:22;;;;;;;2.13;1.05;;;;;;;;;;4991137;28;20250;-69
2021/04/12 13:22:59;;;;;;;5.40;1.50;;;;;;;;;;4990270;28;20175;-68
2021/04/12 13:25:24;;;;;;;3.40;1.40;;;;;;;;;;4994641;28;20218;-68
2021/04/12 13:27:54;;;;;;;2.60;1.00;;;;;;;;;;4997428;28;20195;-68
2021/04/12 13:30:24;;;;;;;2.50;1.48;;;;;;;;;;4990336;28;20202;-68
2021/04/12 13:33:24;;;;;;;1.48;0.55;;;;;;;;;;4989928;28;20194;-68
2021/04/12 13:35:57;;;;;;;1.50;0.70;;;;;;;;;;4993180;28;20191;-68
2021/04/12 13:38:29;;;;;;;4.85;0.75;;;;;;;;;;4990441;28;20335;-68
2021/04/12 13:40:57;;;;;;;1.63;0.60;;;;;;;;;;4981525;28;20238;-68
2021/04/12 13:43:30;;;;;;;3.38;0.70;;;;;;;;;;4991408;28;20185;-68
2021/04/12 13:46:06;;;;;;;2.20;0.60;;;;;;;;;;4983764;28;20297;-69
2021/04/12 13:48:35;;;;;;;1.08;0.47;;;;;;;;;;5001219;28;20179;-69
2021/04/12 13:51:12;;;;;;;2.47;0.50;;;;;;;;;;4991166;28;20198;-68
2021/04/12 13:53:55;;;;;;;2.53;0.88;;;;;;;;;;5007400;28;20182;-68
2021/04/12 13:56:27;;;;;;;2.83;1.00;;;;;;;;;;4994095;28;20220;-68
2021/04/12 13:59:00;;;;;;;2.88;0.70;;;;;;;;;;4996095;28;20178;-68
2021/04/12 14:01:35;;;;;;;1.88;0.60;;;;;;;;;;4991932;28;20190;-69
2021/04/12 14:04:14;;;;;;;3.83;0.43;;;;;;;;;;4999109;28;20233;-69
2021/04/12 14:06:55;;;;;;;1.75;0.35;;;;;;;;;;4992707;28;20225;-69
2021/04/12 14:09:33;;;;;;;0.83;0.40;;;;;;;;;;5000731;28;20187;-69
2021/04/12 14:12:24;;;;;;;3.17;0.50;;;;;;;;;;4991896;28;20282;-70
2021/04/12 14:15:06;;;;;;;1.50;0.47;;;;;;;;;;4998615;28;20528;-70
2021/04/12 14:17:40;;;;;;;2.80;0.63;;;;;;;;;;4993992;28;20190;-70
2021/04/12 14:20:14;;;;;;;0.93;0.50;;;;;;;;;;5013025;28;20190;-70
2021/04/12 14:22:49;;;;;;;1.77;0.53;;;;;;;;;;4995303;28;20339;-70
2021/04/12 14:25:44;;;;;;;2.27;0.70;;;;;;;;;;5000470;28;20269;-68
2021/04/12 14:28:21;;;;;;;3.17;0.50;;;;;;;;;;4978799;28;20198;-68
2021/04/12 14:30:53;;;;;;;2.07;0.40;;;;;;;;;;4995856;28;20198;-68
2021/04/12 14:33:28;;;;;;;1.27;0.57;;;;;;;;;;4989549;28;20191;-68
2021/04/12 14:36:31;;;;;;;1.60;0.57;;;;;;;;;;4995802;28;20221;-68
2021/04/12 14:39:26;;;;;;;2.42;0.85;;;;;;;;;;4989545;28;20309;-68
2021/04/12 14:41:56;;;;;;;3.23;0.73;;;;;;;;;;4984914;28;20233;-69
2021/04/12 14:44:31;;;;;;;1.97;0.67;;;;;;;;;;5001206;28;20195;-68
2021/04/12 14:46:58;;;;;;;4.07;0.73;;;;;;;;;;4994974;28;20670;-68
2021/04/12 14:49:35;;;;;;;2.93;0.90;;;;;;;;;;4988816;28;20194;-68
2021/04/12 14:52:29;;;;;;;3.73;1.10;;;;;;;;;;4998201;28;20186;-69
2021/04/12 14:55:04;;;;;;;1.23;0.70;;;;;;;;;;5000576;28;20195;-68
2021/04/12 14:57:35;;;;;;;3.07;0.60;;;;;;;;;;4995303;28;20201;-68
2021/04/12 15:00:13;;;;;;;4.57;0.73;;;;;;;;;;4986319;28;20198;-69
2021/04/12 15:03:02;;;;;;;1.93;0.63;;;;;;;;;;4994288;28;20761;-69
2021/04/12 15:05:40;;;;;;;2.47;0.53;;;;;;;;;;4989724;28;20199;-69
2021/04/12 15:08:16;;;;;;;2.60;0.80;;;;;;;;;;4992970;28;20187;-69
2021/04/12 15:10:45;;;;;;;1.63;0.70;;;;;;;;;;4991048;28;20301;-69
2021/04/12 15:13:23;;;;;;;1.80;0.50;;;;;;;;;;4999206;28;20186;-69
2021/04/12 15:15:54;;;;;;;1.33;0.60;;;;;;;;;;4987685;28;20214;-69
2021/04/12 15:18:30;;;;;;;5.97;0.80;;;;;;;;;;4998055;28;20190;-69
2021/04/12 15:21:02;;;;;;;2.93;0.60;;;;;;;;;;4989595;28;20236;-69
2021/04/12 15:23:31;;;;;;;1.90;0.43;;;;;;;;;;5000385;28;20593;-70
2021/04/12 15:26:01;;;;;;;2.10;0.67;;;;;;;;;;4987644;28;20362;-69
2021/04/12 15:28:35;;;;;;;3.40;0.70;;;;;;;;;;4993693;28;20271;-69
2021/04/12 15:31:25;;;;;;;1.97;0.60;;;;;;;;;;4982338;28;20305;-69
2021/04/12 15:33:54;;;;;;;2.43;0.40;;;;;;;;;;4992531;28;20270;-69
2021/04/12 15:36:34;;;;;;;2.43;0.37;;;;;;;;;;4987756;28;20190;-71
2021/04/12 15:39:20;;;;;;;2.77;0.90;;;;;;;;;;4991948;28;20555;-69
2021/04/12 15:41:47;;;;;;;3.87;1.90;;;;;;;;;;4987049;28;20223;-69
2021/04/12 15:44:37;;;;;;;2.43;0.83;;;;;;;;;;4991711;28;21267;-70
2021/04/12 15:47:12;;;;;;;1.23;0.50;;;;;;;;;;4983781;28;20215;-69
2021/04/12 15:49:45;;;;;;;2.40;0.50;;;;;;;;;;4993060;28;20618;-69
2021/04/12 15:52:23;;;;;;;1.37;0.30;;;;;;;;;;4985427;28;20190;-69
2021/04/12 15:55:04;;;;;;;3.37;1.30;;;;;;;;;;5001634;28;20308;-69
2021/04/12 15:57:31;;;;;;;2.57;0.77;;;;;;;;;;4987240;28;20178;-69
2021/04/12 16:00:11;;;;;;;0.63;0.30;;;;;;;;;;4993168;28;20186;-69
2021/04/12 16:02:41;;;;;;;2.27;0.87;;;;;;;;;;4986794;28;20268;-69
2021/04/12 16:05:06;;;;;;;2.57;0.60;;;;;;;;;;4993397;28;20561;-69
2021/04/12 16:07:48;;;;;;;2.77;0.40;;;;;;;;;;4988303;28;20194;-70
2021/04/12 16:10:25;;;;;;;3.57;0.50;;;;;;;;;;4994867;28;20257;-70
2021/04/12 16:13:03;;;;;;;1.47;0.43;;;;;;;;;;4987568;28;20190;-69
2021/04/12 16:15:34;;;;;;;0.67;0.20;;;;;;;;;;4991256;28;20190;-69
2021/04/12 16:18:09;;;;;;;1.13;0.30;;;;;;;;;;4987544;28;20218;-70
2021/04/12 16:20:39;;;;;;;1.30;0.50;;;;;;;;;;4994589;28;20225;-70
2021/04/12 16:23:08;;;;;;;1.67;0.67;;;;;;;;;;5000393;28;20188;-69
2021/04/12 16:25:55;;;;;;;0.67;0.30;;;;;;;;;;4994417;28;20210;-69